Time;durP1;ratioP1;P1;durP2;ratioP2;P2;SDS_P1;SDS_P2;PMS_P1;PMS_P2;Temp;Humidity;BMP_temperature;BMP_pressure;BME280_temperature;BME280_humidity;BME280_pressure;Samples;Min_cycle;Max_cycle;Signal;HPM_P1;HPM_P2
2023/01/23 00:01:39;;;;;;;24.02;13.32;;;;;;;-144.31;100.00;58022.63;5026330;28;20111;-59
2023/01/23 00:04:04;;;;;;;24.23;12.63;;;;;;;-144.31;100.00;58022.63;5032259;28;20056;-59
2023/01/23 00:06:30;;;;;;;23.35;13.10;;;;;;;-144.31;100.00;58022.63;5026684;28;20037;-59
2023/01/23 00:08:56;;;;;;;22.08;12.52;;;;;;;-144.31;100.00;58022.63;5025958;28;20068;-57
2023/01/23 00:11:24;;;;;;;23.35;13.25;;;;;;;-144.31;100.00;58022.63;5033786;28;20373;-56
2023/01/23 00:13:50;;;;;;;20.80;12.15;;;;;;;-144.31;100.00;58022.63;5027186;28;20041;-56
2023/01/23 00:16:21;;;;;;;24.17;13.00;;;;;;;-144.31;100.00;58022.63;5032390;28;20075;-55
2023/01/23 00:18:47;;;;;;;23.58;13.00;;;;;;;-144.31;100.00;58022.63;5024940;28;20072;-53
2023/01/23 00:21:15;;;;;;;20.63;11.70;;;;;;;-144.31;100.00;58022.63;5026604;28;20029;-54
2023/01/23 00:23:50;;;;;;;25.42;13.98;;;;;;;-144.31;100.00;58022.63;5030112;28;20158;-57
2023/01/23 00:26:18;;;;;;;26.48;14.15;;;;;;;-144.31;100.00;58022.63;5027571;28;20407;-57
2023/01/23 00:28:45;;;;;;;23.58;13.70;;;;;;;-144.31;100.00;58022.63;5036626;28;20036;-51
2023/01/23 00:31:17;;;;;;;25.15;13.90;;;;;;;-144.31;100.00;58022.63;5024067;28;20040;-54
2023/01/23 00:33:43;;;;;;;29.83;15.80;;;;;;;-144.31;100.00;58022.63;5025284;28;20045;-58
2023/01/23 00:36:10;;;;;;;27.40;14.67;;;;;;;-144.31;100.00;58022.63;5034823;28;20029;-55
2023/01/23 00:38:35;;;;;;;22.90;13.65;;;;;;;-144.31;100.00;58022.63;5031406;28;21066;-50
2023/01/23 00:41:01;;;;;;;24.60;14.07;;;;;;;-144.31;100.00;58022.63;5025682;28;20075;-57
2023/01/23 00:43:28;;;;;;;25.83;14.43;;;;;;;-144.31;100.00;58022.63;5032725;28;20041;-58
2023/01/23 00:45:53;;;;;;;24.98;13.85;;;;;;;-144.31;100.00;58022.63;5029390;28;20100;-54
2023/01/23 00:48:18;;;;;;;22.73;13.20;;;;;;;-144.31;100.00;58022.63;5038018;28;20798;-58
2023/01/23 00:50:44;;;;;;;22.42;13.20;;;;;;;-144.31;100.00;58022.63;5024992;28;20124;-57
2023/01/23 00:53:11;;;;;;;25.20;14.35;;;;;;;-144.31;100.00;58022.63;5026531;28;20072;-57
2023/01/23 00:55:37;;;;;;;27.30;14.05;;;;;;;-144.31;100.00;58022.63;5030728;28;20086;-57
2023/01/23 00:58:02;;;;;;;26.20;15.18;;;;;;;-144.31;100.00;58022.63;5024847;28;20041;-61
2023/01/23 01:00:28;;;;;;;26.65;14.35;;;;;;;-144.31;100.00;58022.63;5031281;28;20521;-58
2023/01/23 01:02:54;;;;;;;23.20;13.23;;;;;;;-144.31;100.00;58022.63;5027463;28;20501;-57
2023/01/23 01:05:20;;;;;;;26.23;14.30;;;;;;;-144.31;100.00;58022.63;5028074;28;20036;-58
2023/01/23 01:07:46;;;;;;;26.83;14.20;;;;;;;-144.31;100.00;58022.63;5033549;28;20048;-58
2023/01/23 01:10:13;;;;;;;26.57;15.37;;;;;;;-144.31;100.00;58022.63;5026654;28;20044;-54
2023/01/23 01:12:39;;;;;;;24.40;14.50;;;;;;;-144.31;100.00;58022.63;5031170;28;20037;-55
2023/01/23 01:15:05;;;;;;;26.50;15.02;;;;;;;-144.31;100.00;58022.63;5024073;28;20814;-57
2023/01/23 01:17:31;;;;;;;25.73;14.63;;;;;;;-144.31;100.00;58022.63;5031825;28;20482;-55
2023/01/23 01:19:56;;;;;;;27.17;15.13;;;;;;;-144.31;100.00;58022.63;5032818;28;20040;-57
2023/01/23 01:22:22;;;;;;;27.83;15.70;;;;;;;-144.31;100.00;58022.63;5024122;28;20262;-58
2023/01/23 01:24:47;;;;;;;24.52;14.18;;;;;;;-144.31;100.00;58022.63;5031624;28;20115;-55
2023/01/23 01:27:13;;;;;;;30.05;16.02;;;;;;;-144.31;100.00;58022.63;5011148;28;20049;-55
2023/01/23 01:29:39;;;;;;;25.45;13.82;;;;;;;-144.31;100.00;58022.63;5026520;28;20669;-57
2023/01/23 01:32:04;;;;;;;25.65;13.90;;;;;;;-144.31;100.00;58022.63;5032600;28;20052;-58
2023/01/23 01:34:30;;;;;;;25.05;15.00;;;;;;;-144.31;100.00;58022.63;5028384;28;20251;-54
2023/01/23 01:36:56;;;;;;;23.33;13.57;;;;;;;-144.31;100.00;58022.63;5030178;28;20103;-55
2023/01/23 01:39:22;;;;;;;26.45;15.38;;;;;;;-144.31;100.00;58022.63;5024424;28;20032;-57
2023/01/23 01:41:47;;;;;;;27.25;13.93;;;;;;;-144.31;100.00;58022.63;5024582;28;20041;-59
2023/01/23 01:44:17;;;;;;;27.42;15.20;;;;;;;-144.31;100.00;58022.63;5032562;28;20041;-57
2023/01/23 01:46:45;;;;;;;26.77;14.30;;;;;;;-144.31;100.00;58022.63;5026076;28;20045;-54
2023/01/23 01:49:30;;;;;;;26.42;14.55;;;;;;;-144.31;100.00;58022.63;5036675;28;20048;-54
2023/01/23 01:51:59;;;;;;;32.75;15.63;;;;;;;-144.31;100.00;58022.63;5033964;28;20064;-59
2023/01/23 01:54:28;;;;;;;26.23;14.45;;;;;;;-144.31;100.00;58022.63;5027659;28;20485;-57
2023/01/23 01:57:22;;;;;;;25.75;13.82;;;;;;;-144.31;100.00;58022.63;5038217;28;20045;-56
2023/01/23 01:59:55;;;;;;;25.30;14.07;;;;;;;-144.31;100.00;58022.63;5029712;28;20892;-56
2023/01/23 02:02:26;;;;;;;26.88;13.55;;;;;;;-144.31;100.00;58022.63;5026793;28;20422;-55
2023/01/23 02:05:00;;;;;;;25.52;14.70;;;;;;;-144.31;100.00;58022.63;5032943;28;20037;-59
2023/01/23 02:07:34;;;;;;;21.48;12.88;;;;;;;-144.31;100.00;58022.63;5026013;28;20037;-62
2023/01/23 02:10:03;;;;;;;25.05;13.15;;;;;;;-144.31;100.00;58022.63;5030676;28;20119;-55
2023/01/23 02:12:30;;;;;;;23.17;13.65;;;;;;;-144.31;100.00;58022.63;5040536;28;20033;-55
2023/01/23 02:14:57;;;;;;;23.80;13.25;;;;;;;-144.31;100.00;58022.63;5031758;28;20037;-55
2023/01/23 02:17:22;;;;;;;23.92;13.07;;;;;;;-144.31;100.00;58022.63;5033807;28;20044;-57
2023/01/23 02:20:26;;;;;;;29.35;14.90;;;;;;;-144.31;100.00;58022.63;5033296;28;20036;-56
2023/01/23 02:23:09;;;;;;;30.23;15.40;;;;;;;-144.31;100.00;58022.63;4995714;28;20099;-57
2023/01/23 02:25:44;;;;;;;28.83;15.27;;;;;;;-144.31;100.00;58022.63;5031501;28;20114;-54
2023/01/23 02:28:15;;;;;;;26.95;15.25;;;;;;;-144.31;100.00;58022.63;5033561;28;20037;-53
2023/01/23 02:30:45;;;;;;;25.90;14.93;;;;;;;-144.31;100.00;58022.63;5029100;28;20068;-55
2023/01/23 02:33:23;;;;;;;27.60;15.65;;;;;;;-144.31;100.00;58022.63;5034055;28;20042;-56
2023/01/23 02:35:50;;;;;;;28.02;15.55;;;;;;;-144.31;100.00;58022.63;5029747;28;20044;-59
2023/01/23 02:38:21;;;;;;;28.30;16.58;;;;;;;-144.31;100.00;58022.63;5028498;28;20534;-57
2023/01/23 02:40:46;;;;;;;28.38;15.43;;;;;;;-144.31;100.00;58022.63;5042023;28;20041;-56
2023/01/23 02:43:21;;;;;;;26.73;14.45;;;;;;;-144.31;100.00;58022.63;5028670;28;20043;-57
2023/01/23 02:45:53;;;;;;;25.40;15.18;;;;;;;-144.31;100.00;58022.63;5036156;28;20037;-55
2023/01/23 02:48:20;;;;;;;22.30;12.48;;;;;;;-144.31;100.00;58022.63;5028665;28;20045;-58
2023/01/23 02:50:46;;;;;;;28.50;14.40;;;;;;;-144.31;100.00;58022.63;5033198;28;20041;-54
2023/01/23 02:53:12;;;;;;;26.02;14.75;;;;;;;-144.31;100.00;58022.63;5035788;28;20048;-56
2023/01/23 02:55:42;;;;;;;27.58;15.48;;;;;;;-144.31;100.00;58022.63;5027548;28;20032;-55
2023/01/23 03:00:52;;;;;;;26.52;14.45;;;;;;;-144.31;100.00;58022.63;5032719;28;20029;-55
2023/01/23 03:03:17;;;;;;;30.70;15.32;;;;;;;-144.31;100.00;58022.63;5027168;28;20032;-58
2023/01/23 03:05:45;;;;;;;28.52;15.05;;;;;;;-144.31;100.00;58022.63;5035689;28;20037;-53
2023/01/23 03:08:10;;;;;;;28.58;15.50;;;;;;;-144.31;100.00;58022.63;5032191;28;20037;-53
2023/01/23 03:10:36;;;;;;;28.33;14.13;;;;;;;-144.31;100.00;58022.63;5027130;28;20421;-55
2023/01/23 03:13:03;;;;;;;24.98;14.45;;;;;;;-144.31;100.00;58022.63;5034028;28;20046;-57
2023/01/23 03:15:30;;;;;;;26.55;13.70;;;;;;;-144.31;100.00;58022.63;5030510;28;20725;-55
2023/01/23 03:17:56;;;;;;;25.38;14.73;;;;;;;-144.31;100.00;58022.63;5038022;28;20047;-59
2023/01/23 03:20:22;;;;;;;30.58;15.55;;;;;;;-144.31;100.00;58022.63;5028227;28;21349;-56
2023/01/23 03:22:49;;;;;;;27.02;14.75;;;;;;;-144.31;100.00;58022.63;5027742;28;20128;-56
2023/01/23 03:25:15;;;;;;;25.45;13.65;;;;;;;-144.31;100.00;58022.63;5028625;28;20124;-57
2023/01/23 03:27:41;;;;;;;27.53;14.77;;;;;;;-144.31;100.00;58022.63;5025576;28;20036;-54
2023/01/23 03:30:14;;;;;;;23.55;13.38;;;;;;;-144.31;100.00;58022.63;5031158;28;20033;-54
2023/01/23 03:32:42;;;;;;;26.67;13.90;;;;;;;-144.31;100.00;58022.63;5033682;28;20176;-58
2023/01/23 03:35:12;;;;;;;22.60;12.90;;;;;;;-144.31;100.00;58022.63;5023798;28;20685;-59
2023/01/23 03:37:38;;;;;;;27.30;14.55;;;;;;;-144.31;100.00;58022.63;5015042;28;20263;-59
2023/01/23 03:42:48;;;;;;;27.38;13.20;;;;;;;-144.31;100.00;58022.63;5027100;28;20538;-56
2023/01/23 03:45:21;;;;;;;22.40;12.88;;;;;;;-144.31;100.00;58022.63;5031908;28;20032;-59
2023/01/23 03:47:46;;;;;;;26.33;13.68;;;;;;;-144.31;100.00;58022.63;5029087;28;20044;-57
2023/01/23 03:50:12;;;;;;;27.42;14.35;;;;;;;-144.31;100.00;58022.63;5032994;28;20036;-53
2023/01/23 03:52:38;;;;;;;29.77;14.30;;;;;;;-144.31;100.00;58022.63;5025207;28;20033;-57
2023/01/23 03:55:05;;;;;;;25.63;13.55;;;;;;;-144.31;100.00;58022.63;5009388;28;20033;-58
2023/01/23 03:57:32;;;;;;;25.30;13.27;;;;;;;-144.31;100.00;58022.63;5031250;28;20128;-55
2023/01/23 04:00:08;;;;;;;25.45;13.20;;;;;;;-144.31;100.00;58022.63;5025706;28;20033;-52
2023/01/23 04:02:43;;;;;;;27.85;14.57;;;;;;;-144.31;100.00;58022.63;5025943;28;20089;-58
2023/01/23 04:05:11;;;;;;;25.55;13.43;;;;;;;-144.31;100.00;58022.63;5032021;28;20071;-54
2023/01/23 04:07:37;;;;;;;26.00;13.15;;;;;;;-144.31;100.00;58022.63;5024102;28;20041;-54
2023/01/23 04:10:03;;;;;;;25.63;13.88;;;;;;;-144.31;100.00;58022.63;5037334;28;20048;-59
2023/01/23 04:12:28;;;;;;;24.55;12.20;;;;;;;-144.31;100.00;58022.63;5025077;28;20144;-58
2023/01/23 04:14:54;;;;;;;26.40;14.20;;;;;;;-144.31;100.00;58022.63;5026063;28;20049;-56
2023/01/23 04:17:19;;;;;;;24.63;12.88;;;;;;;-144.31;100.00;58022.63;5035995;28;20037;-57
2023/01/23 04:19:45;;;;;;;26.42;13.20;;;;;;;-144.31;100.00;58022.63;5031644;28;20086;-61
2023/01/23 04:22:10;;;;;;;24.73;13.45;;;;;;;-144.31;100.00;58022.63;5031567;28;20064;-56
2023/01/23 04:24:44;;;;;;;28.00;13.93;;;;;;;-144.31;100.00;58022.63;5023859;28;20029;-60
2023/01/23 04:27:10;;;;;;;25.27;12.50;;;;;;;-144.31;100.00;58022.63;5015884;28;20107;-57
2023/01/23 04:29:36;;;;;;;24.98;12.68;;;;;;;-144.31;100.00;58022.63;5031815;28;20463;-53
2023/01/23 04:32:01;;;;;;;25.60;13.20;;;;;;;-144.31;100.00;58022.63;5024620;28;20037;-58
2023/01/23 04:34:28;;;;;;;25.42;13.40;;;;;;;-144.31;100.00;58022.63;5031272;28;20060;-54
2023/01/23 04:36:55;;;;;;;;;;;;;;;-144.31;100.00;58022.63;5028489;28;20037;-57
2023/01/23 04:39:21;;;;;;;22.85;11.68;;;;;;;-144.31;100.00;58022.63;5027783;28;19928;-57
2023/01/23 04:41:48;;;;;;;26.23;12.80;;;;;;;-144.31;100.00;58022.63;5032485;28;20503;-55
2023/01/23 04:44:26;;;;;;;25.05;13.00;;;;;;;-144.31;100.00;58022.63;5028062;28;20036;-60
2023/01/23 04:47:10;;;;;;;26.63;13.07;;;;;;;-144.31;100.00;58022.63;5030296;28;20068;-53
2023/01/23 04:49:36;;;;;;;27.27;13.25;;;;;;;-144.31;100.00;58022.63;5029161;28;20716;-60
2023/01/23 04:52:01;;;;;;;27.73;12.85;;;;;;;-144.31;100.00;58022.63;5037529;28;20049;-54
2023/01/23 04:54:28;;;;;;;26.17;13.13;;;;;;;-144.31;100.00;58022.63;5037245;28;20470;-54
2023/01/23 04:56:55;;;;;;;27.98;13.93;;;;;;;-144.31;100.00;58022.63;5030289;28;20108;-59
2023/01/23 04:59:21;;;;;;;25.52;12.68;;;;;;;-144.31;100.00;58022.63;5025964;28;20635;-57
2023/01/23 05:01:47;;;;;;;27.73;14.35;;;;;;;-144.31;100.00;58022.63;5030188;28;20037;-54
2023/01/23 05:04:13;;;;;;;25.90;13.63;;;;;;;-144.31;100.00;58022.63;5025846;28;20041;-55
2023/01/23 05:06:38;;;;;;;28.20;13.63;;;;;;;-144.31;100.00;58022.63;5034308;28;20160;-56
2023/01/23 05:09:05;;;;;;;29.40;15.15;;;;;;;-144.31;100.00;58022.63;5030662;28;20045;-53
2023/01/23 05:11:37;;;;;;;29.23;14.00;;;;;;;-144.31;100.00;58022.63;5023850;28;20037;-53
2023/01/23 05:14:02;;;;;;;27.75;14.43;;;;;;;-144.31;100.00;58022.63;5031029;28;20521;-57
2023/01/23 05:16:29;;;;;;;29.45;14.00;;;;;;;-144.31;100.00;58022.63;5024497;28;20040;-57
2023/01/23 05:19:27;;;;;;;28.88;14.05;;;;;;;-144.31;100.00;58022.63;5028573;28;20095;-54
2023/01/23 05:21:53;;;;;;;28.83;15.30;;;;;;;-144.31;100.00;58022.63;5036087;28;20053;-54
2023/01/23 05:24:20;;;;;;;44.25;19.23;;;;;;;-144.31;100.00;58022.63;5033181;28;20752;-56
2023/01/23 05:26:46;;;;;;;48.17;20.88;;;;;;;-144.31;100.00;58022.63;5031674;28;20160;-57
2023/01/23 05:29:12;;;;;;;29.10;14.25;;;;;;;-144.31;100.00;58022.63;5022573;28;20410;-52
2023/01/23 05:31:47;;;;;;;30.92;15.13;;;;;;;-144.31;100.00;58022.63;5027191;28;20032;-56
2023/01/23 05:34:38;;;;;;;28.10;14.32;;;;;;;-144.31;100.00;58022.63;5033071;28;20045;-55
2023/01/23 05:37:13;;;;;;;27.50;14.45;;;;;;;-144.31;100.00;58022.63;5026192;28;20040;-55
2023/01/23 05:39:42;;;;;;;30.08;15.50;;;;;;;-144.31;100.00;58022.63;5035741;28;20475;-58
2023/01/23 05:42:08;;;;;;;29.75;15.50;;;;;;;-144.31;100.00;58022.63;5036423;28;20048;-59
2023/01/23 05:44:42;;;;;;;31.80;15.70;;;;;;;-144.31;100.00;58022.63;5029270;28;20044;-53
2023/01/23 05:47:14;;;;;;;33.40;16.17;;;;;;;-144.31;100.00;58022.63;5033088;28;20095;-57
2023/01/23 05:49:39;;;;;;;29.10;16.58;;;;;;;-144.31;100.00;58022.63;5033026;28;20037;-57
2023/01/23 05:52:05;;;;;;;33.58;17.20;;;;;;;-144.31;100.00;58022.63;5031903;28;21068;-57
2023/01/23 05:54:31;;;;;;;30.90;16.02;;;;;;;-144.31;100.00;58022.63;5040887;28;20499;-59
2023/01/23 05:56:58;;;;;;;33.22;18.45;;;;;;;-144.31;100.00;58022.63;5025849;28;20069;-56
2023/01/23 05:59:42;;;;;;;30.33;15.73;;;;;;;-144.31;100.00;58022.63;5026901;28;21836;-55
2023/01/23 06:02:28;;;;;;;36.97;18.30;;;;;;;-144.31;100.00;58022.63;5030630;28;20124;-55
2023/01/23 06:05:14;;;;;;;35.40;16.63;;;;;;;-144.31;100.00;58022.63;5028576;28;20048;-57
2023/01/23 06:07:58;;;;;;;32.63;15.65;;;;;;;-144.31;100.00;58022.63;5027411;28;20365;-56
2023/01/23 06:10:23;;;;;;;31.15;15.40;;;;;;;-144.31;100.00;58022.63;5020064;28;20045;-59
2023/01/23 06:12:49;;;;;;;32.15;15.07;;;;;;;-144.31;100.00;58022.63;5024282;28;20048;-54
2023/01/23 06:15:14;;;;;;;30.15;14.65;;;;;;;-144.31;100.00;58022.63;5031524;28;20713;-60
2023/01/23 06:17:40;;;;;;;37.38;17.02;;;;;;;-144.31;100.00;58022.63;5032853;28;20450;-56
2023/01/23 06:20:06;;;;;;;34.38;16.90;;;;;;;-144.31;100.00;58022.63;5026905;28;20445;-55
2023/01/23 06:22:32;;;;;;;36.77;17.53;;;;;;;-144.31;100.00;58022.63;5037685;28;20044;-57
2023/01/23 06:25:02;;;;;;;32.88;16.27;;;;;;;-144.31;100.00;58022.63;5027309;28;20126;-55
2023/01/23 06:27:27;;;;;;;35.97;16.52;;;;;;;-144.31;100.00;58022.63;5034214;28;20052;-56
2023/01/23 06:29:53;;;;;;;30.67;15.65;;;;;;;-144.31;100.00;58022.63;5026641;28;20516;-55
2023/01/23 06:32:19;;;;;;;35.08;16.83;;;;;;;-144.31;100.00;58022.63;5027378;28;20025;-57
2023/01/23 06:34:45;;;;;;;35.93;16.90;;;;;;;-144.31;100.00;58022.63;5032139;28;20155;-54
2023/01/23 06:37:11;;;;;;;37.05;15.98;;;;;;;-144.31;100.00;58022.63;5026554;28;20639;-55
2023/01/23 06:39:39;;;;;;;35.58;16.00;;;;;;;-144.31;100.00;58022.63;5032898;28;20029;-56
2023/01/23 06:42:08;;;;;;;31.38;14.38;;;;;;;-144.31;100.00;58022.63;5024772;28;20067;-58
2023/01/23 06:44:37;;;;;;;29.20;14.45;;;;;;;-144.31;100.00;58022.63;5033811;28;20033;-55
2023/01/23 06:47:04;;;;;;;37.17;16.90;;;;;;;-144.31;100.00;58022.63;5037226;28;20048;-58
2023/01/23 06:49:30;;;;;;;42.83;18.80;;;;;;;-144.31;100.00;58022.63;5029410;28;20037;-55
2023/01/23 06:51:55;;;;;;;46.65;18.35;;;;;;;-144.31;100.00;58022.63;5033702;28;20064;-58
2023/01/23 06:54:23;;;;;;;38.58;16.85;;;;;;;-144.31;100.00;58022.63;5038867;28;20060;-56
2023/01/23 06:56:50;;;;;;;33.50;16.38;;;;;;;-144.31;100.00;58022.63;5025921;28;20044;-57
2023/01/23 06:59:17;;;;;;;;;;;;;;;-144.31;100.00;58022.63;5035518;28;20049;-58
2023/01/23 07:01:43;;;;;;;31.23;15.00;;;;;;;-144.31;100.00;58022.63;5035079;28;19986;-55
2023/01/23 07:04:11;;;;;;;31.60;14.80;;;;;;;-144.31;100.00;58022.63;5033013;28;20044;-58
2023/01/23 07:06:39;;;;;;;36.00;16.27;;;;;;;-144.31;100.00;58022.63;5031757;28;20045;-59
2023/01/23 07:09:04;;;;;;;32.45;16.17;;;;;;;-144.31;100.00;58022.63;5048953;28;20043;-56
2023/01/23 07:11:30;;;;;;;35.20;15.60;;;;;;;-144.31;100.00;58022.63;5035974;28;20036;-59
2023/01/23 07:13:55;;;;;;;33.78;15.38;;;;;;;-144.31;100.00;58022.63;5038870;28;20448;-56
2023/01/23 07:16:21;;;;;;;36.17;16.92;;;;;;;-144.31;100.00;58022.63;5038282;28;20041;-54
2023/01/23 07:18:47;;;;;;;33.45;16.02;;;;;;;-144.31;100.00;58022.63;5035506;28;20077;-57
2023/01/23 07:21:12;;;;;;;40.58;18.00;;;;;;;-144.31;100.00;58022.63;5035086;28;20116;-57
2023/01/23 07:23:38;;;;;;;35.25;17.42;;;;;;;-144.31;100.00;58022.63;5039329;28;20048;-57
2023/01/23 07:26:08;;;;;;;35.85;15.88;;;;;;;-144.31;100.00;58022.63;5036422;28;20493;-57
2023/01/23 07:28:38;;;;;;;30.80;15.35;;;;;;;-144.31;100.00;58022.63;5038546;28;20068;-57
2023/01/23 07:31:05;;;;;;;32.42;15.57;;;;;;;-144.31;100.00;58022.63;5036205;28;20090;-59
2023/01/23 07:33:30;;;;;;;33.78;16.48;;;;;;;-144.31;100.00;58022.63;5043154;28;20048;-57
2023/01/23 07:35:56;;;;;;;35.42;15.23;;;;;;;-144.31;100.00;58022.63;5033542;28;20530;-58
2023/01/23 07:38:24;;;;;;;30.42;15.38;;;;;;;-144.31;100.00;58022.63;5036210;28;20124;-58
2023/01/23 07:40:50;;;;;;;39.45;16.90;;;;;;;-144.31;100.00;58022.63;5036132;28;20497;-58
2023/01/23 07:43:17;;;;;;;36.07;18.63;;;;;;;-144.31;100.00;58022.63;5035469;28;20045;-57
2023/01/23 07:45:42;;;;;;;33.25;15.85;;;;;;;-144.31;100.00;58022.63;5035828;28;20436;-59
2023/01/23 07:48:08;;;;;;;34.00;15.32;;;;;;;-144.31;100.00;58022.63;5033488;28;20048;-58
2023/01/23 07:50:36;;;;;;;31.92;14.77;;;;;;;-144.31;100.00;58022.63;5037678;28;20041;-57
2023/01/23 07:53:02;;;;;;;32.17;16.10;;;;;;;-144.31;100.00;58022.63;5042615;28;20047;-59
2023/01/23 07:55:28;;;;;;;31.35;15.10;;;;;;;-144.31;100.00;58022.63;5038513;28;20049;-58
2023/01/23 07:57:54;;;;;;;29.90;15.05;;;;;;;-144.31;100.00;58022.63;5035241;28;20397;-55
2023/01/23 08:00:21;;;;;;;35.53;15.10;;;;;;;-144.31;100.00;58022.63;5036699;28;20425;-53
2023/01/23 08:02:46;;;;;;;31.05;15.85;;;;;;;-144.31;100.00;58022.63;5033613;28;20041;-57
2023/01/23 08:05:12;;;;;;;29.40;14.10;;;;;;;-144.31;100.00;58022.63;5038682;28;20044;-57
2023/01/23 08:07:37;;;;;;;27.23;13.30;;;;;;;-144.31;100.00;58022.63;5035064;28;20043;-55
2023/01/23 08:10:03;;;;;;;27.13;13.32;;;;;;;-144.31;100.00;58022.63;5037939;28;20038;-56
2023/01/23 08:12:28;;;;;;;25.58;12.48;;;;;;;-144.31;100.00;58022.63;5032606;28;20098;-58
2023/01/23 08:14:54;;;;;;;25.13;12.02;;;;;;;-144.31;100.00;58022.63;5036796;28;20111;-52
2023/01/23 08:17:20;;;;;;;26.60;13.48;;;;;;;-144.31;100.00;58022.63;5036175;28;22093;-57
2023/01/23 08:19:45;;;;;;;24.30;10.80;;;;;;;-144.31;100.00;58022.63;5036545;28;20523;-58
2023/01/23 08:22:10;;;;;;;23.60;11.90;;;;;;;-144.31;100.00;58022.63;5036560;28;20055;-59
2023/01/23 08:24:36;;;;;;;22.38;11.35;;;;;;;-144.31;100.00;58022.63;5032945;28;20044;-59
2023/01/23 08:27:01;;;;;;;24.08;11.75;;;;;;;-144.31;100.00;58022.63;5040279;28;20410;-56
2023/01/23 08:29:27;;;;;;;24.65;11.90;;;;;;;-144.31;100.00;58022.63;5037785;28;20059;-55
2023/01/23 08:31:53;;;;;;;23.40;11.63;;;;;;;-144.31;100.00;58022.63;5036842;28;20025;-58
2023/01/23 08:34:20;;;;;;;24.63;12.67;;;;;;;-144.31;100.00;58022.63;5033747;28;20041;-55
2023/01/23 08:36:45;;;;;;;22.23;11.00;;;;;;;-144.31;100.00;58022.63;5032064;28;20048;-54
2023/01/23 08:39:11;;;;;;;22.80;11.23;;;;;;;-144.31;100.00;58022.63;5034223;28;20282;-57
2023/01/23 08:41:36;;;;;;;21.52;10.90;;;;;;;-144.31;100.00;58022.63;5038963;28;21469;-53
2023/01/23 08:44:03;;;;;;;18.80;10.35;;;;;;;-144.31;100.00;58022.63;5030655;28;20668;-57
2023/01/23 08:46:28;;;;;;;23.85;12.20;;;;;;;-144.31;100.00;58022.63;5044316;28;20068;-53
2023/01/23 08:48:54;;;;;;;23.35;11.23;;;;;;;-144.31;100.00;58022.63;5032105;28;20069;-54
2023/01/23 08:51:20;;;;;;;23.98;13.23;;;;;;;-144.31;100.00;58022.63;5038094;28;20037;-58
2023/01/23 08:53:45;;;;;;;23.38;12.35;;;;;;;-144.31;100.00;58022.63;5037859;28;20482;-54
2023/01/23 08:56:16;;;;;;;23.13;11.20;;;;;;;-144.31;100.00;58022.63;5034847;28;20128;-59
2023/01/23 08:58:42;;;;;;;25.88;13.80;;;;;;;-144.31;100.00;58022.63;5040342;28;20475;-58
2023/01/23 09:01:13;;;;;;;21.58;11.88;;;;;;;-144.31;100.00;58022.63;5039456;28;20037;-58
2023/01/23 09:03:38;;;;;;;23.80;12.93;;;;;;;-144.31;100.00;58022.63;5035192;28;20041;-55
2023/01/23 09:06:05;;;;;;;24.63;13.50;;;;;;;-144.31;100.00;58022.63;5035237;28;20045;-57
2023/01/23 09:08:30;;;;;;;22.92;11.10;;;;;;;-144.31;100.00;58022.63;5034820;28;20074;-57
2023/01/23 09:11:00;;;;;;;25.23;11.23;;;;;;;-144.31;100.00;58022.63;5035347;28;20468;-57
2023/01/23 09:13:26;;;;;;;20.52;11.32;;;;;;;-144.31;100.00;58022.63;5036293;28;20090;-53
2023/01/23 09:15:52;;;;;;;21.55;11.63;;;;;;;-144.31;100.00;58022.63;5041747;28;20044;-56
2023/01/23 09:18:17;;;;;;;20.55;10.38;;;;;;;-144.31;100.00;58022.63;5033686;28;20042;-54
2023/01/23 09:20:43;;;;;;;21.48;10.45;;;;;;;-144.31;100.00;58022.63;5035938;28;20039;-58
2023/01/23 09:23:08;;;;;;;17.85;9.57;;;;;;;-144.31;100.00;58022.63;5035613;28;20065;-56
2023/01/23 09:25:34;;;;;;;20.42;9.77;;;;;;;-144.31;100.00;58022.63;5037748;28;20048;-60
2023/01/23 09:27:59;;;;;;;23.48;10.82;;;;;;;-144.31;100.00;58022.63;5041676;28;20037;-56
2023/01/23 09:30:24;;;;;;;19.00;10.52;;;;;;;-144.31;100.00;58022.63;5041190;28;20045;-57
2023/01/23 09:32:50;;;;;;;19.67;10.82;;;;;;;-144.31;100.00;58022.63;5034965;28;20120;-54
2023/01/23 09:35:15;;;;;;;19.45;9.35;;;;;;;-144.31;100.00;58022.63;5040200;28;20130;-55
2023/01/23 09:37:59;;;;;;;22.02;11.07;;;;;;;-144.31;100.00;58022.63;5042262;28;20130;-59
2023/01/23 09:40:31;;;;;;;19.83;10.85;;;;;;;-144.31;100.00;58022.63;5036558;28;20397;-56
2023/01/23 09:43:31;;;;;;;22.48;11.35;;;;;;;-144.31;100.00;58022.63;5040184;28;20041;-55
2023/01/23 09:46:09;;;;;;;22.55;11.10;;;;;;;-144.31;100.00;58022.63;5037144;28;20037;-53
2023/01/23 09:48:38;;;;;;;19.67;9.90;;;;;;;-144.31;100.00;58022.63;5036617;28;20049;-57
2023/01/23 09:51:11;;;;;;;18.50;10.02;;;;;;;-144.31;100.00;58022.63;5034232;28;20044;-59
2023/01/23 09:53:39;;;;;;;24.80;12.73;;;;;;;-144.31;100.00;58022.63;5038930;28;20103;-58
2023/01/23 09:56:08;;;;;;;22.85;11.57;;;;;;;-144.31;100.00;58022.63;5043655;28;20049;-55
2023/01/23 09:58:42;;;;;;;23.15;11.38;;;;;;;-144.31;100.00;58022.63;5030973;28;20045;-58
2023/01/23 10:01:12;;;;;;;35.88;12.23;;;;;;;-144.31;100.00;58022.63;5039520;28;20041;-57
2023/01/23 10:03:38;;;;;;;26.02;12.52;;;;;;;-144.31;100.00;58022.63;5038201;28;20045;-56
2023/01/23 10:06:31;;;;;;;23.23;11.27;;;;;;;-144.31;100.00;58022.63;5039943;28;20044;-58
2023/01/23 10:09:12;;;;;;;19.27;10.80;;;;;;;-144.31;100.00;58022.63;5039837;28;20044;-55
2023/01/23 10:12:04;;;;;;;26.15;12.20;;;;;;;-144.31;100.00;58022.63;5034157;28;20038;-58
2023/01/23 10:14:58;;;;;;;22.20;12.07;;;;;;;-144.31;100.00;58022.63;5011958;28;20485;-55
2023/01/23 10:17:36;;;;;;;24.83;12.05;;;;;;;-144.31;100.00;58022.63;5024738;28;20060;-58
2023/01/23 10:20:18;;;;;;;21.30;11.73;;;;;;;-144.31;100.00;58022.63;5045885;28;20103;-55
2023/01/23 10:23:10;;;;;;;24.20;11.63;;;;;;;-144.31;100.00;58022.63;5043284;28;20102;-58
2023/01/23 10:25:39;;;;;;;24.17;11.20;;;;;;;-144.31;100.00;58022.63;5036605;28;20033;-54
2023/01/23 10:28:38;;;;;;;22.70;12.38;;;;;;;-144.31;100.00;58022.63;5034453;28;20056;-56
2023/01/23 10:31:29;;;;;;;22.42;11.63;;;;;;;-144.31;100.00;58022.63;5038306;28;20056;-54
2023/01/23 10:34:24;;;;;;;22.08;11.57;;;;;;;-144.31;100.00;58022.63;5039245;28;20045;-56
2023/01/23 10:36:59;;;;;;;26.52;13.00;;;;;;;-144.31;100.00;58022.63;5034443;28;20190;-57
2023/01/23 10:39:49;;;;;;;24.33;12.13;;;;;;;-144.31;100.00;58022.63;5041082;28;20060;-59
2023/01/23 10:42:19;;;;;;;23.45;11.68;;;;;;;-144.31;100.00;58022.63;5040672;28;20123;-57
2023/01/23 10:44:46;;;;;;;26.20;12.85;;;;;;;-144.31;100.00;58022.63;5037320;28;20083;-56
2023/01/23 10:47:20;;;;;;;24.65;12.05;;;;;;;-144.31;100.00;58022.63;5037100;28;20048;-53
2023/01/23 10:49:45;;;;;;;26.50;13.20;;;;;;;-144.31;100.00;58022.63;5038906;28;20111;-61
2023/01/23 10:52:29;;;;;;;39.45;19.00;;;;;;;-144.31;100.00;58022.63;5033004;28;20045;-60
2023/01/23 10:54:55;;;;;;;23.30;11.80;;;;;;;-144.31;100.00;58022.63;5034917;28;20508;-57
2023/01/23 10:57:25;;;;;;;26.00;12.77;;;;;;;-144.31;100.00;58022.63;5037998;28;20037;-57
2023/01/23 11:00:03;;;;;;;26.50;13.05;;;;;;;-144.31;100.00;58022.63;5043411;28;20099;-57
2023/01/23 11:02:34;;;;;;;24.27;12.45;;;;;;;-144.31;100.00;58022.63;5042212;28;20051;-52
2023/01/23 11:05:00;;;;;;;27.17;12.77;;;;;;;-144.31;100.00;58022.63;5037975;28;20033;-55
2023/01/23 11:07:36;;;;;;;25.77;12.88;;;;;;;-144.31;100.00;58022.63;5034353;28;20113;-54
2023/01/23 11:10:20;;;;;;;23.42;11.48;;;;;;;-144.31;100.00;58022.63;5039356;28;20067;-55